Time;durP1;ratioP1;P1;durP2;ratioP2;P2;SDS_P1;SDS_P2;PMS_P1;PMS_P2;Temp;Humidity;BMP_temperature;BMP_pressure;BME280_temperature;BME280_humidity;BME280_pressure;Samples;Min_cycle;Max_cycle;Signal;HPM_P1;HPM_P2
2023/08/12 00:00:23;;;;;;;4.40;3.40;;;;;;;11.90;64.60;100834.38;131052;1256;107749;-77
2023/08/12 00:03:49;;;;;;;6.10;3.70;;;;;;;11.85;64.64;100833.08;131054;1253;109395;-77
2023/08/12 00:06:54;;;;;;;5.60;3.80;;;;;;;11.79;65.04;100832.15;131116;1251;108735;-76
2023/08/12 00:10:00;;;;;;;6.10;3.80;;;;;;;11.73;64.96;100828.45;131052;1254;107782;-79
2023/08/12 00:13:06;;;;;;;7.50;3.70;;;;;;;11.68;65.11;100833.44;131133;1255;106676;-76
2023/08/12 00:16:12;;;;;;;4.90;3.80;;;;;;;11.61;65.15;100831.03;131063;1251;108569;-76
2023/08/12 00:19:17;;;;;;;5.20;3.20;;;;;;;11.57;65.19;100826.45;131070;1253;108662;-76
2023/08/12 00:22:24;;;;;;;5.10;3.30;;;;;;;11.55;65.24;100828.58;131064;1255;106522;-75
2023/08/12 00:25:29;;;;;;;3.80;3.30;;;;;;;11.54;65.24;100831.89;131078;1253;108683;-76
2023/08/12 00:28:35;;;;;;;5.50;3.30;;;;;;;11.55;65.22;100834.80;131003;1251;106645;-76
2023/08/12 00:31:41;;;;;;;4.50;3.70;;;;;;;11.59;65.39;100834.98;131000;1253;107051;-76
2023/08/12 00:34:46;;;;;;;5.60;3.60;;;;;;;11.61;65.44;100832.56;131026;1257;106623;-77
2023/08/12 00:37:52;;;;;;;5.00;3.80;;;;;;;11.60;65.40;100831.70;131024;1253;106942;-76
2023/08/12 00:40:58;;;;;;;5.20;3.70;;;;;;;11.58;65.50;100831.68;130997;1256;107676;-77
2023/08/12 00:44:03;;;;;;;3.70;3.00;;;;;;;11.56;65.31;100830.86;131120;1264;107563;-76
2023/08/12 00:47:09;;;;;;;5.40;4.10;;;;;;;11.51;65.36;100832.16;131138;1253;106599;-77
2023/08/12 00:50:16;;;;;;;4.90;3.70;;;;;;;11.46;65.83;100837.33;130957;1254;229977;-76
2023/08/12 00:53:22;;;;;;;6.10;3.60;;;;;;;11.38;65.34;100840.36;131168;1251;106844;-76
2023/08/12 00:56:28;;;;;;;4.30;3.60;;;;;;;11.32;65.71;100842.89;131143;1254;106459;-76
2023/08/12 00:59:37;;;;;;;4.70;3.80;;;;;;;11.30;65.90;100838.98;131307;1250;107759;-76
2023/08/12 01:02:47;;;;;;;4.90;3.90;;;;;;;11.29;65.85;100836.38;131170;1256;107741;-76
2023/08/12 01:05:53;;;;;;;5.30;3.60;;;;;;;11.25;65.51;100839.05;131280;1257;108335;-77
2023/08/12 01:08:59;;;;;;;5.80;3.60;;;;;;;11.23;65.89;100841.19;131172;1253;106657;-76
2023/08/12 01:12:13;;;;;;;4.10;3.10;;;;;;;11.24;66.12;100843.25;130996;1250;107884;-76
2023/08/12 01:15:23;;;;;;;7.00;3.60;;;;;;;11.24;65.87;100840.77;130986;1257;108636;-76
2023/08/12 01:18:30;;;;;;;6.90;3.80;;;;;;;11.25;65.81;100838.55;131033;1253;108681;-76
2023/08/12 01:21:38;;;;;;;4.10;3.50;;;;;;;11.26;66.13;100837.76;131235;1256;107642;-76
2023/08/12 01:24:45;;;;;;;4.30;3.30;;;;;;;11.23;66.02;100840.35;131032;1252;107690;-76
2023/08/12 01:27:51;;;;;;;5.50;3.60;;;;;;;11.20;66.01;100846.31;131057;1254;107467;-76
2023/08/12 01:31:10;;;;;;;5.50;3.80;;;;;;;11.14;65.88;100843.26;131053;1251;106692;-76
2023/08/12 01:34:23;;;;;;;5.20;3.70;;;;;;;11.12;66.25;100844.86;131261;1250;107371;-76
2023/08/12 01:37:31;;;;;;;5.40;3.70;;;;;;;11.10;66.16;100841.89;131128;1253;107302;-77
2023/08/12 01:40:39;;;;;;;5.30;3.10;;;;;;;11.08;66.07;100838.94;130983;1251;108561;-77
2023/08/12 01:43:45;;;;;;;4.50;3.40;;;;;;;11.06;66.29;100839.61;130963;1251;106370;-76
2023/08/12 01:46:51;;;;;;;5.10;3.60;;;;;;;11.02;66.28;100838.34;131006;1253;107778;-76
2023/08/12 01:49:57;;;;;;;4.30;3.40;;;;;;;10.99;66.39;100832.77;131090;1254;106742;-76
2023/08/12 01:53:03;;;;;;;5.30;3.80;;;;;;;10.95;66.51;100828.45;131057;1250;106852;-76
2023/08/12 01:56:09;;;;;;;5.40;3.60;;;;;;;10.92;66.67;100827.14;131051;1253;108188;-76
2023/08/12 01:59:15;;;;;;;4.60;3.10;;;;;;;10.89;66.74;100827.28;131010;1250;106844;-76
2023/08/12 02:02:21;;;;;;;4.20;2.90;;;;;;;10.84;66.68;100833.80;130997;1253;106813;-77
2023/08/12 02:05:26;;;;;;;4.00;3.00;;;;;;;10.84;66.56;100831.08;131029;1250;107794;-77
2023/08/12 02:08:32;;;;;;;4.70;3.30;;;;;;;10.85;66.75;100836.16;131088;1257;107750;-76
2023/08/12 02:11:38;;;;;;;5.20;3.20;;;;;;;10.85;66.66;100830.85;130992;1254;107107;-76
2023/08/12 02:14:44;;;;;;;4.80;3.20;;;;;;;10.83;66.71;100831.55;131043;1253;107775;-76
2023/08/12 02:17:49;;;;;;;4.40;3.30;;;;;;;10.81;66.69;100829.02;130996;1256;107028;-77
2023/08/12 02:20:55;;;;;;;5.70;3.40;;;;;;;10.80;66.66;100833.61;130984;1251;107765;-77
2023/08/12 02:24:01;;;;;;;3.70;3.20;;;;;;;10.77;66.69;100829.55;131020;1250;106619;-76
2023/08/12 02:27:06;;;;;;;6.60;3.50;;;;;;;10.75;66.87;100828.38;130948;1257;108773;-76
2023/08/12 02:30:13;;;;;;;5.00;3.40;;;;;;;10.70;67.02;100824.42;131020;1253;105812;-77
2023/08/12 02:33:19;;;;;;;4.20;3.40;;;;;;;10.63;66.73;100828.55;131168;1251;106417;-76
2023/08/12 02:36:26;;;;;;;5.30;3.30;;;;;;;10.56;67.13;100826.33;130994;1257;107666;-77
2023/08/12 02:39:34;;;;;;;5.10;3.20;;;;;;;10.51;67.04;100826.06;131158;1257;106552;-76
2023/08/12 02:42:40;;;;;;;5.00;3.20;;;;;;;10.50;67.21;100829.41;131038;1257;107043;-76
2023/08/12 02:45:45;;;;;;;5.20;3.20;;;;;;;10.50;67.15;100830.77;131044;1256;108437;-76
2023/08/12 02:48:51;;;;;;;6.20;3.40;;;;;;;10.51;67.24;100831.80;131071;1253;108745;-76
2023/08/12 02:51:56;;;;;;;5.00;3.20;;;;;;;10.49;67.15;100837.29;130994;1256;107679;-76
2023/08/12 02:55:02;;;;;;;5.00;2.70;;;;;;;10.47;67.38;100841.90;131015;1255;107220;-76
2023/08/12 02:58:07;;;;;;;4.00;3.20;;;;;;;10.48;67.28;100840.98;131077;1255;107853;-76
2023/08/12 03:01:13;;;;;;;4.90;3.20;;;;;;;10.50;67.33;100838.45;130992;1255;107444;-76
2023/08/12 03:04:19;;;;;;;6.10;3.70;;;;;;;10.53;67.19;100838.16;131108;1253;107669;-76
2023/08/12 03:07:24;;;;;;;5.70;3.70;;;;;;;10.55;67.66;100841.23;131064;1253;108027;-76
2023/08/12 03:10:30;;;;;;;4.90;3.40;;;;;;;10.55;67.35;100841.70;131102;1254;108156;-76
2023/08/12 03:13:36;;;;;;;4.60;3.20;;;;;;;10.55;67.38;100838.16;131052;1254;107430;-76
2023/08/12 03:16:42;;;;;;;4.10;3.20;;;;;;;10.52;67.43;100837.00;131099;1255;107686;-77
2023/08/12 03:19:48;;;;;;;4.80;3.40;;;;;;;10.50;67.13;100832.20;130950;1251;108475;-76
2023/08/12 03:22:54;;;;;;;5.60;3.40;;;;;;;10.49;67.75;100839.73;131071;1254;106835;-77
2023/08/12 03:26:00;;;;;;;5.40;3.20;;;;;;;10.45;67.62;100839.42;130968;1256;108815;-77
2023/08/12 03:29:06;;;;;;;4.40;3.50;;;;;;;10.42;67.66;100839.73;131144;1253;107704;-79
2023/08/12 03:32:14;;;;;;;4.30;3.40;;;;;;;10.39;67.88;100841.92;131182;1251;107704;-77
2023/08/12 03:35:20;;;;;;;6.50;3.60;;;;;;;10.40;67.72;100838.27;131027;1256;107385;-78
2023/08/12 03:38:26;;;;;;;5.50;3.80;;;;;;;10.39;67.70;100840.67;131022;1251;106458;-76
2023/08/12 03:41:32;;;;;;;5.70;3.70;;;;;;;10.41;67.96;100833.38;131054;1249;106996;-76
2023/08/12 03:44:40;;;;;;;4.00;3.00;;;;;;;10.45;67.89;100838.35;131021;1250;106337;-77
2023/08/12 03:47:45;;;;;;;4.80;3.00;;;;;;;10.51;67.92;100840.83;131056;1253;108624;-77
2023/08/12 03:50:51;;;;;;;5.00;3.50;;;;;;;10.57;68.08;100842.63;131080;1254;107110;-76
2023/08/12 03:53:57;;;;;;;6.60;3.60;;;;;;;10.65;68.15;100849.69;131070;1251;108574;-77
2023/08/12 03:57:03;;;;;;;4.90;3.60;;;;;;;10.76;68.07;100851.42;131093;1265;107761;-77
2023/08/12 04:00:10;;;;;;;4.40;3.40;;;;;;;10.89;68.47;100845.41;131098;1253;108568;-78
2023/08/12 04:03:20;;;;;;;5.00;3.30;;;;;;;11.06;68.18;100837.64;131065;1262;107886;-76
2023/08/12 04:06:25;;;;;;;4.40;3.40;;;;;;;11.24;68.46;100839.17;131024;1256;107607;-77
2023/08/12 04:09:31;;;;;;;5.30;3.50;;;;;;;11.37;68.19;100838.84;131079;1257;108767;-77
2023/08/12 04:12:37;;;;;;;6.30;3.60;;;;;;;11.47;68.24;100843.26;131004;1255;107649;-76
2023/08/12 04:15:42;;;;;;;6.30;3.80;;;;;;;11.53;68.44;100838.59;131039;1255;106602;-77
2023/08/12 04:18:48;;;;;;;5.70;3.40;;;;;;;11.60;68.50;100834.15;131069;1254;107241;-78
2023/08/12 04:21:54;;;;;;;5.80;3.70;;;;;;;11.69;68.62;100833.71;131051;1256;106547;-77
2023/08/12 04:24:59;;;;;;;4.40;3.20;;;;;;;11.78;68.48;100831.00;131093;1251;107692;-77
2023/08/12 04:28:05;;;;;;;5.90;3.10;;;;;;;11.88;68.48;100833.17;131165;1253;107654;-76
2023/08/12 04:31:12;;;;;;;6.00;3.40;;;;;;;12.01;68.75;100841.77;131144;1257;106507;-77
2023/08/12 04:34:19;;;;;;;6.40;3.90;;;;;;;12.19;68.81;100839.42;131272;1253;106585;-77
2023/08/12 04:37:25;;;;;;;4.90;3.50;;;;;;;12.47;69.08;100836.52;131053;1251;108650;-77
2023/08/12 04:40:32;;;;;;;5.60;4.10;;;;;;;12.79;68.97;100832.69;131179;1256;108241;-77
2023/08/12 04:43:38;;;;;;;7.60;3.70;;;;;;;13.09;68.83;100832.17;131039;1253;105321;-77
2023/08/12 04:46:44;;;;;;;6.50;4.30;;;;;;;13.34;69.01;100831.21;131217;1253;107797;-77
2023/08/12 04:49:50;;;;;;;8.30;4.20;;;;;;;13.64;69.11;100823.92;131063;1254;108679;-77
2023/08/12 04:52:55;;;;;;;5.50;4.30;;;;;;;13.94;69.27;100825.36;131100;1254;107817;-77
2023/08/12 04:56:01;;;;;;;4.70;3.60;;;;;;;14.22;69.15;100827.30;131009;1253;107515;-77
2023/08/12 04:59:08;;;;;;;5.50;3.70;;;;;;;14.44;69.14;100826.73;131091;1254;108560;-77
2023/08/12 05:02:14;;;;;;;5.70;3.90;;;;;;;14.69;69.23;100833.05;130945;1257;108632;-78
2023/08/12 05:05:19;;;;;;;5.20;3.80;;;;;;;14.94;69.21;100835.56;131067;1256;105641;-77
2023/08/12 05:08:25;;;;;;;4.70;3.70;;;;;;;15.19;69.35;100833.87;131207;1253;108968;-77
2023/08/12 05:11:31;;;;;;;8.90;3.80;;;;;;;15.45;69.26;100832.29;130940;1257;107095;-77
2023/08/12 05:14:37;;;;;;;4.40;3.50;;;;;;;15.70;69.25;100832.39;131060;1254;106623;-78
2023/08/12 05:17:42;;;;;;;5.70;4.00;;;;;;;15.94;69.45;100832.36;131203;1254;107761;-77
2023/08/12 05:20:48;;;;;;;5.30;4.10;;;;;;;16.16;69.61;100827.35;131129;1253;106370;-77
2023/08/12 05:23:54;;;;;;;5.20;3.90;;;;;;;16.33;69.50;100825.95;131048;1251;107475;-77
2023/08/12 05:27:00;;;;;;;6.10;4.50;;;;;;;16.50;69.50;100823.48;131014;1257;107619;-77
2023/08/12 05:30:07;;;;;;;6.10;4.40;;;;;;;16.64;69.57;100823.30;131097;1254;106515;-77
2023/08/12 05:33:12;;;;;;;5.00;3.70;;;;;;;16.78;69.79;100826.11;131267;1256;106732;-77
2023/08/12 05:36:18;;;;;;;8.10;3.90;;;;;;;16.97;69.86;100825.39;131041;1253;107469;-77
2023/08/12 05:39:23;;;;;;;5.80;3.90;;;;;;;17.17;69.96;100823.36;131104;1253;106567;-76
2023/08/12 05:42:29;;;;;;;5.60;4.10;;;;;;;17.39;70.10;100822.74;131025;1257;107670;-76
2023/08/12 05:45:34;;;;;;;6.80;4.90;;;;;;;17.59;69.53;100821.46;131063;1255;108501;-76
2023/08/12 05:48:40;;;;;;;7.20;4.40;;;;;;;17.76;69.59;100822.21;131079;1256;107712;-76
2023/08/12 05:51:45;;;;;;;5.30;4.20;;;;;;;17.93;69.20;100820.90;131094;1253;108688;-76
2023/08/12 05:54:51;;;;;;;4.60;3.80;;;;;;;18.08;68.69;100819.30;131067;1254;107615;-76
2023/08/12 05:57:57;;;;;;;8.50;3.50;;;;;;;18.20;68.27;100816.23;131063;1255;107507;-76
2023/08/12 06:01:02;;;;;;;6.80;4.10;;;;;;;18.30;67.77;100810.83;131001;1257;106585;-76
2023/08/12 06:04:08;;;;;;;6.50;3.60;;;;;;;18.38;67.24;100815.41;131031;1267;107509;-76
2023/08/12 06:07:14;;;;;;;7.10;3.10;;;;;;;18.43;67.38;100812.94;131028;1251;108448;-76
2023/08/12 06:10:19;;;;;;;4.70;3.20;;;;;;;18.48;66.87;100817.15;131051;1254;107594;-76
2023/08/12 06:13:25;;;;;;;7.20;3.50;;;;;;;18.49;66.84;100809.42;131044;1263;106661;-76
2023/08/12 06:16:31;;;;;;;5.30;3.10;;;;;;;18.48;67.03;100812.48;131013;1254;107820;-76
2023/08/12 06:19:36;;;;;;;5.50;3.20;;;;;;;18.49;67.11;100814.41;131083;1255;107841;-77
2023/08/12 06:22:42;;;;;;;4.50;3.10;;;;;;;18.53;67.02;100813.34;131126;1255;106871;-77
2023/08/12 06:25:48;;;;;;;4.80;3.10;;;;;;;18.57;66.76;100808.69;131134;1256;106385;-77
2023/08/12 06:28:53;;;;;;;4.70;3.10;;;;;;;18.62;66.57;100810.60;131040;1256;107439;-79
2023/08/12 06:31:59;;;;;;;4.00;3.00;;;;;;;18.68;66.61;100814.98;131327;1254;107658;-80
2023/08/12 06:35:05;;;;;;;5.60;2.90;;;;;;;18.72;66.44;100812.95;131191;1251;107088;-78
2023/08/12 06:38:14;;;;;;;6.10;3.10;;;;;;;18.77;66.37;100812.86;131362;1249;106549;-83
2023/08/12 06:41:19;;;;;;;4.10;3.10;;;;;;;18.83;66.55;100811.08;131389;1254;108394;-79
2023/08/12 06:44:25;;;;;;;4.40;2.80;;;;;;;18.89;66.39;100812.50;131178;1257;107704;-79
2023/08/12 06:47:31;;;;;;;3.80;2.50;;;;;;;18.96;66.35;100816.31;131256;1263;107934;-79
2023/08/12 06:50:36;;;;;;;3.30;2.40;;;;;;;19.01;65.47;100814.74;131288;1257;106238;-79
2023/08/12 06:53:43;;;;;;;3.30;2.00;;;;;;;19.06;65.07;100812.56;131363;1256;106949;-79
2023/08/12 06:56:48;;;;;;;3.70;2.50;;;;;;;19.12;64.96;100812.46;131281;1260;107421;-79
2023/08/12 06:59:54;;;;;;;4.60;2.60;;;;;;;19.16;64.52;100811.98;131210;1250;108409;-79
2023/08/12 07:02:59;;;;;;;3.90;2.40;;;;;;;19.19;64.59;100803.78;131420;1263;106895;-80
2023/08/12 07:06:10;;;;;;;4.50;2.60;;;;;;;19.24;64.27;100796.58;131409;1262;107102;-80
2023/08/12 07:09:20;;;;;;;3.00;2.30;;;;;;;19.28;63.87;100798.14;131266;1255;107928;-78
2023/08/12 07:12:26;;;;;;;5.30;2.10;;;;;;;19.34;63.68;100794.89;131288;1253;108811;-81
2023/08/12 07:15:33;;;;;;;4.40;2.80;;;;;;;19.41;63.34;100796.86;131583;1253;106710;-82
2023/08/12 07:18:38;;;;;;;3.80;2.10;;;;;;;19.51;63.47;100790.77;131352;1255;106585;-81
2023/08/12 07:21:44;;;;;;;4.50;1.90;;;;;;;19.59;63.05;100787.06;131420;1263;108531;-78
2023/08/12 07:24:52;;;;;;;3.20;2.00;;;;;;;19.68;62.64;100784.39;131475;1254;107724;-72
2023/08/12 07:27:58;;;;;;;3.00;1.80;;;;;;;19.75;62.28;100786.67;131558;1254;109061;-73
2023/08/12 07:31:04;;;;;;;3.30;2.10;;;;;;;19.85;61.98;100786.88;131137;1263;107803;-72
2023/08/12 07:34:12;;;;;;;4.80;1.80;;;;;;;19.94;61.57;100782.21;131347;1255;107527;-73
2023/08/12 07:37:18;;;;;;;3.20;1.80;;;;;;;20.05;60.72;100780.23;131138;1262;107786;-73
2023/08/12 07:40:24;;;;;;;2.70;1.60;;;;;;;20.14;60.39;100785.55;131154;1254;107454;-72
2023/08/12 07:43:30;;;;;;;2.80;1.60;;;;;;;20.22;60.41;100783.11;131164;1253;107870;-74
2023/08/12 07:46:35;;;;;;;2.80;1.60;;;;;;;20.32;61.49;100784.86;130981;1257;107674;-73
2023/08/12 07:49:42;;;;;;;2.20;1.70;;;;;;;20.38;60.11;100784.70;131079;1257;107161;-73
2023/08/12 07:52:48;;;;;;;2.90;1.60;;;;;;;20.45;59.99;100786.63;131041;1255;106545;-72
2023/08/12 07:55:53;;;;;;;3.40;1.90;;;;;;;20.49;59.50;100790.61;131358;1254;107557;-72
2023/08/12 07:58:59;;;;;;;3.10;1.70;;;;;;;20.54;58.63;100784.57;131197;1253;108254;-72
2023/08/12 08:02:05;;;;;;;3.90;1.60;;;;;;;20.57;57.63;100777.27;131030;1263;108958;-72
2023/08/12 08:05:13;;;;;;;2.80;1.90;;;;;;;20.64;58.20;100774.82;131091;1251;106367;-73
2023/08/12 08:08:19;;;;;;;3.40;1.70;;;;;;;20.71;58.99;100772.32;131110;1251;108946;-74
2023/08/12 08:11:26;;;;;;;3.00;1.80;;;;;;;20.76;58.20;100770.65;131141;1255;107580;-73
2023/08/12 08:14:32;;;;;;;3.70;1.90;;;;;;;20.83;59.34;100765.70;131041;1255;106747;-76
2023/08/12 08:17:39;;;;;;;2.10;1.70;;;;;;;20.92;59.34;100762.73;131161;1253;106914;-73
2023/08/12 08:20:45;;;;;;;3.00;1.80;;;;;;;20.99;59.19;100763.61;131102;1253;108679;-73
2023/08/12 08:23:51;;;;;;;2.70;1.60;;;;;;;21.05;59.08;100762.42;131517;1251;107654;-76
2023/08/12 08:26:57;;;;;;;3.60;1.90;;;;;;;21.09;59.10;100762.67;131571;1254;107317;-73
2023/08/12 08:30:03;;;;;;;3.40;1.90;;;;;;;21.14;58.06;100760.33;131587;1251;106658;-72
2023/08/12 08:33:09;;;;;;;3.20;1.80;;;;;;;21.21;57.58;100757.27;131297;1251;108551;-76
2023/08/12 08:36:14;;;;;;;2.90;1.50;;;;;;;21.26;56.11;100759.83;131151;1257;106585;-74
2023/08/12 08:39:21;;;;;;;2.20;1.50;;;;;;;21.29;56.01;100755.64;131180;1251;107324;-74
2023/08/12 08:42:27;;;;;;;3.00;1.80;;;;;;;21.35;55.67;100752.87;131094;1252;107622;-74
2023/08/12 08:45:34;;;;;;;3.40;1.60;;;;;;;21.39;55.09;100746.18;131065;1253;107246;-75
2023/08/12 08:48:40;;;;;;;3.10;1.80;;;;;;;21.47;55.30;100745.27;131174;1263;106741;-75
2023/08/12 08:51:47;;;;;;;4.40;1.90;;;;;;;21.50;55.54;100742.30;131137;1253;106597;-75
2023/08/12 08:54:53;;;;;;;6.40;2.20;;;;;;;21.57;55.90;100743.36;131017;1255;110059;-75
2023/08/12 08:57:59;;;;;;;6.20;2.50;;;;;;;21.61;55.45;100740.59;131082;1261;106732;-74
2023/08/12 09:01:06;;;;;;;5.50;2.70;;;;;;;21.65;55.76;100742.00;131072;1261;107018;-74
2023/08/12 09:04:12;;;;;;;4.60;2.70;;;;;;;21.70;55.60;100743.69;131108;1254;107174;-75
2023/08/12 09:07:18;;;;;;;3.30;1.90;;;;;;;21.72;55.04;100742.18;131168;1253;108714;-74
2023/08/12 09:10:27;;;;;;;3.80;2.60;;;;;;;21.69;53.91;100743.61;131180;1251;107269;-75
2023/08/12 09:13:33;;;;;;;3.40;2.30;;;;;;;21.70;54.53;100737.67;131188;1253;106688;-74
2023/08/12 09:16:39;;;;;;;5.90;2.60;;;;;;;21.78;54.57;100738.02;131065;1254;107748;-75
2023/08/12 09:19:45;;;;;;;5.10;2.30;;;;;;;21.82;53.99;100739.18;131079;1251;107646;-75
2023/08/12 09:22:58;;;;;;;3.80;1.90;;;;;;;21.86;53.04;100737.06;131181;1254;107702;-74
2023/08/12 09:26:11;;;;;;;6.80;3.00;;;;;;;21.92;50.29;100729.64;131142;1254;107246;-74
2023/08/12 09:29:17;;;;;;;4.10;2.20;;;;;;;22.00;53.69;100726.25;131328;1249;107774;-75
2023/08/12 09:32:22;;;;;;;5.00;2.20;;;;;;;22.03;53.19;100723.70;131187;1251;107888;-75
2023/08/12 09:35:34;;;;;;;8.80;4.10;;;;;;;22.07;53.86;100724.73;131040;1263;108469;-75
2023/08/12 09:38:40;;;;;;;3.00;2.00;;;;;;;22.08;52.20;100725.13;131134;1254;107734;-77
2023/08/12 09:41:45;;;;;;;2.70;1.60;;;;;;;22.09;51.62;100726.75;131215;1253;107751;-74
2023/08/12 09:44:51;;;;;;;2.50;1.50;;;;;;;22.16;51.08;100722.66;131115;1262;106646;-73
2023/08/12 09:47:57;;;;;;;2.20;1.50;;;;;;;22.21;49.84;100720.75;131100;1253;108682;-74
2023/08/12 09:51:03;;;;;;;3.20;1.80;;;;;;;22.25;50.57;100715.89;131193;1255;106914;-74
2023/08/12 09:54:11;;;;;;;4.10;2.50;;;;;;;22.28;51.44;100714.38;131185;1254;107066;-74
2023/08/12 09:57:20;;;;;;;5.60;2.70;;;;;;;22.32;51.85;100710.08;131145;1253;107639;-75
2023/08/12 10:00:30;;;;;;;6.20;3.40;;;;;;;22.35;52.28;100700.70;131179;1254;107081;-76
2023/08/12 10:03:36;;;;;;;3.40;1.90;;;;;;;22.32;51.81;100693.71;131198;1251;108392;-74
2023/08/12 10:06:44;;;;;;;5.90;2.80;;;;;;;22.34;51.55;100692.42;131056;1254;108538;-75
2023/08/12 10:09:51;;;;;;;4.50;2.90;;;;;;;22.38;51.70;100689.59;131160;1251;108401;-75
2023/08/12 10:12:56;;;;;;;4.90;2.80;;;;;;;22.41;51.85;100684.09;131019;1251;107845;-75
2023/08/12 10:16:02;;;;;;;3.40;2.10;;;;;;;22.41;52.05;100680.20;131099;1251;107897;-74
2023/08/12 10:19:12;;;;;;;3.00;2.10;;;;;;;22.43;50.60;100674.95;131028;1255;106671;-74
2023/08/12 10:22:18;;;;;;;3.80;2.90;;;;;;;22.46;51.56;100672.41;131151;1263;106966;-75
2023/08/12 10:25:25;;;;;;;4.30;2.20;;;;;;;22.48;51.23;100666.80;131228;1254;106766;-75
2023/08/12 10:28:36;;;;;;;5.30;2.80;;;;;;;22.50;50.76;100662.10;131170;1254;107546;-74
2023/08/12 10:31:44;;;;;;;5.60;3.10;;;;;;;22.51;51.11;100661.16;131048;1253;107731;-74
2023/08/12 10:34:56;;;;;;;3.10;2.10;;;;;;;22.54;49.27;100654.49;131071;1254;107670;-75
2023/08/12 10:38:03;;;;;;;4.60;2.60;;;;;;;22.58;48.79;100655.45;131047;1254;107668;-74
2023/08/12 10:41:20;;;;;;;4.00;2.40;;;;;;;22.61;50.34;100656.63;131120;1253;108563;-75
2023/08/12 10:44:39;;;;;;;3.20;1.90;;;;;;;22.67;50.03;100655.46;131029;1251;107645;-76
2023/08/12 10:47:49;;;;;;;2.20;1.60;;;;;;;22.77;50.48;100654.52;131021;1255;106816;-76
2023/08/12 10:50:57;;;;;;;2.90;1.70;;;;;;;22.83;49.44;100646.10;132194;1251;106868;-76
2023/08/12 10:54:14;;;;;;;2.20;1.60;;;;;;;22.89;49.36;100646.09;131313;1253;106052;-77
2023/08/12 10:57:37;;;;;;;6.30;2.30;;;;;;;22.97;49.24;100645.88;131224;1250;108724;-75
2023/08/12 11:00:44;;;;;;;2.60;1.60;;;;;;;23.00;49.33;100639.61;131423;1254;108028;-76
2023/08/12 11:03:51;;;;;;;2.80;1.70;;;;;;;23.09;48.91;100636.27;131319;1254;108784;-76
2023/08/12 11:06:57;;;;;;;3.40;1.30;;;;;;;23.12;49.30;100642.36;131260;1251;108340;-75
2023/08/12 11:10:10;;;;;;;2.70;1.50;;;;;;;23.11;47.07;100639.02;131247;1252;106837;-75
2023/08/12 11:13:16;;;;;;;3.10;1.70;;;;;;;23.15;47.91;100639.60;131294;1251;107687;-75
2023/08/12 11:16:35;;;;;;;3.00;1.90;;;;;;;23.19;48.81;100633.02;131162;1254;107678;-75
2023/08/12 11:19:41;;;;;;;2.90;2.00;;;;;;;23.20;49.18;100630.04;131211;1253;108664;-76
2023/08/12 11:22:47;;;;;;;3.90;2.00;;;;;;;23.17;48.94;100627.51;131096;1253;107442;-75
2023/08/12 11:25:53;;;;;;;3.30;2.00;;;;;;;23.16;49.40;100629.16;131151;1254;107482;-74
2023/08/12 11:28:59;;;;;;;2.10;1.50;;;;;;;23.12;49.50;100633.70;131011;1253;107668;-74
2023/08/12 11:32:06;;;;;;;3.30;1.40;;;;;;;23.10;48.62;100630.59;131030;1251;108136;-76
2023/08/12 11:35:12;;;;;;;4.10;1.50;;;;;;;23.15;48.20;100626.36;131054;1254;107713;-76
2023/08/12 11:38:18;;;;;;;4.80;2.20;;;;;;;23.24;48.40;100617.91;131046;1261;107494;-75
2023/08/12 11:41:27;;;;;;;2.00;1.40;;;;;;;23.30;48.58;100613.91;131170;1251;107522;-75
2023/08/12 11:44:42;;;;;;;2.80;1.50;;;;;;;23.31;47.49;100602.29;131505;1249;106537;-76
2023/08/12 11:47:53;;;;;;;4.20;2.30;;;;;;;23.35;48.64;100586.87;131265;1253;107380;-78
2023/08/12 11:50:59;;;;;;;3.30;1.90;;;;;;;23.29;47.58;100582.02;131131;1251;107734;-78
2023/08/12 11:54:06;;;;;;;4.00;1.70;;;;;;;23.37;47.63;100573.86;131017;1254;107609;-77
2023/08/12 11:57:11;;;;;;;4.50;2.10;;;;;;;23.45;48.53;100573.74;131047;1257;107485;-75
2023/08/12 12:00:18;;;;;;;4.30;1.70;;;;;;;23.44;48.25;100580.09;130990;1254;108464;-74
2023/08/12 12:03:28;;;;;;;4.30;1.60;;;;;;;23.49;48.28;100580.98;131151;1253;107538;-74
2023/08/12 12:06:37;;;;;;;2.20;1.60;;;;;;;23.54;48.87;100578.45;131135;1250;106651;-75
2023/08/12 12:09:45;;;;;;;3.30;1.50;;;;;;;23.53;48.79;100578.49;131151;1255;107614;-76
2023/08/12 12:12:50;;;;;;;1.70;1.30;;;;;;;23.63;47.86;100575.59;131018;1254;107328;-75
2023/08/12 12:15:56;;;;;;;2.10;1.70;;;;;;;23.76;46.39;100572.95;131693;1251;107305;-76
2023/08/12 12:19:02;;;;;;;3.50;1.60;;;;;;;23.91;47.12;100565.77;132323;1250;108476;-75
2023/08/12 12:22:08;;;;;;;2.20;1.40;;;;;;;24.00;46.56;100561.02;132106;1250;106790;-76
2023/08/12 12:25:15;;;;;;;2.20;1.30;;;;;;;24.07;47.29;100560.83;132869;1250;109005;-76
2023/08/12 12:28:20;;;;;;;6.50;1.60;;;;;;;24.13;45.35;100554.76;131001;1254;108673;-75
2023/08/12 12:31:26;;;;;;;2.70;1.40;;;;;;;24.24;46.77;100557.27;131049;1256;106449;-74
2023/08/12 12:34:32;;;;;;;2.30;1.60;;;;;;;24.34;45.97;100554.11;131274;1253;106800;-75
2023/08/12 12:37:37;;;;;;;1.90;1.60;;;;;;;24.48;45.53;100556.02;131074;1250;107680;-75
2023/08/12 12:40:43;;;;;;;3.30;1.40;;;;;;;24.64;46.28;100550.61;131186;1253;106631;-74
2023/08/12 12:43:48;;;;;;;2.30;1.80;;;;;;;24.84;46.06;100542.33;130990;1251;107822;-75
2023/08/12 12:46:54;;;;;;;2.40;1.50;;;;;;;24.97;45.29;100540.89;133029;1250;106673;-76
2023/08/12 12:49:59;;;;;;;2.70;1.40;;;;;;;24.98;46.34;100535.95;131822;1250;118185;-76
2023/08/12 12:53:05;;;;;;;2.60;1.40;;;;;;;24.93;46.03;100541.68;131362;1251;107631;-76
2023/08/12 12:56:11;;;;;;;2.80;1.70;;;;;;;24.92;45.16;100537.72;131091;1254;107672;-76
2023/08/12 12:59:17;;;;;;;2.20;1.40;;;;;;;24.85;45.05;100533.98;131384;1250;108650;-74
2023/08/12 13:02:23;;;;;;;3.30;1.50;;;;;;;24.81;43.97;100534.84;135384;1250;107252;-74
2023/08/12 13:05:28;;;;;;;2.20;1.60;;;;;;;24.84;42.55;100531.66;131848;1250;107209;-73
2023/08/12 13:08:34;;;;;;;2.30;1.40;;;;;;;24.93;44.40;100528.08;131494;1251;106859;-76
2023/08/12 13:11:40;;;;;;;2.20;1.50;;;;;;;24.89;42.98;100523.58;131350;1251;107464;-75
2023/08/12 13:14:45;;;;;;;4.60;1.60;;;;;;;24.86;43.60;100519.11;131053;1250;108209;-75
2023/08/12 13:17:51;;;;;;;5.10;1.90;;;;;;;24.86;43.39;100517.52;131032;1253;106548;-75
2023/08/12 13:20:56;;;;;;;3.50;1.60;;;;;;;24.87;44.30;100510.73;131071;1253;106756;-74
2023/08/12 13:24:03;;;;;;;2.00;1.30;;;;;;;24.89;44.28;100504.48;131038;1251;107391;-75
2023/08/12 13:27:09;;;;;;;2.00;1.40;;;;;;;24.84;44.83;100505.41;131099;1253;108642;-76
2023/08/12 13:30:15;;;;;;;3.60;2.00;;;;;;;24.70;44.24;100503.61;131102;1254;107422;-75
2023/08/12 13:33:20;;;;;;;3.00;1.50;;;;;;;24.68;44.04;100501.20;131103;1251;108219;-75
2023/08/12 13:36:26;;;;;;;2.80;1.50;;;;;;;24.73;43.60;100502.02;131052;1253;107724;-75
2023/08/12 13:39:32;;;;;;;4.30;1.60;;;;;;;24.90;42.40;100504.27;131090;1253;106677;-75
2023/08/12 13:42:37;;;;;;;4.40;1.70;;;;;;;25.00;42.88;100501.05;131007;1251;108385;-74
2023/08/12 13:45:43;;;;;;;2.50;1.70;;;;;;;25.07;43.58;100495.40;131076;1254;107613;-73
2023/08/12 13:48:48;;;;;;;1.50;1.20;;;;;;;25.00;43.89;100488.42;131040;1253;107249;-73
2023/08/12 13:51:55;;;;;;;1.60;1.40;;;;;;;24.87;44.26;100482.81;131058;1257;107816;-73
2023/08/12 13:55:00;;;;;;;1.90;1.40;;;;;;;24.87;44.24;100480.33;131108;1254;107885;-73
2023/08/12 13:58:06;;;;;;;1.70;1.40;;;;;;;24.90;44.22;100477.95;131067;1250;106614;-73
2023/08/12 14:01:12;;;;;;;2.40;1.40;;;;;;;24.81;43.76;100471.73;131104;1253;106611;-74
2023/08/12 14:04:17;;;;;;;1.90;1.50;;;;;;;24.79;44.35;100467.92;131038;1250;108025;-75
2023/08/12 14:07:23;;;;;;;3.20;1.70;;;;;;;24.72;44.46;100469.48;131080;1253;107525;-74